sensor_id;sensor_type;location;lat;lon;timestamp;noise_LAeq;noise_LA_min;noise_LA_max;noise_LA01;noise_LA95
72415;Laerm;60995;52.154;4.498;2024-01-06T00:01:57;44.82;37.04;57.61;;
72415;Laerm;60995;52.154;4.498;2024-01-06T00:04:13;47.56;38.30;58.33;;
72415;Laerm;60995;52.154;4.498;2024-01-06T00:06:29;44.98;37.53;56.98;;
72415;Laerm;60995;52.154;4.498;2024-01-06T00:08:45;42.66;37.82;49.53;;
72415;Laerm;60995;52.154;4.498;2024-01-06T00:11:01;45.95;37.44;57.67;;
72415;Laerm;60995;52.154;4.498;2024-01-06T00:13:21;44.41;37.97;52.21;;
72415;Laerm;60995;52.154;4.498;2024-01-06T00:15:37;45.18;37.40;55.04;;
72415;Laerm;60995;52.154;4.498;2024-01-06T00:17:53;45.49;37.36;56.78;;
72415;Laerm;60995;52.154;4.498;2024-01-06T00:20:09;44.79;37.46;54.11;;
72415;Laerm;60995;52.154;4.498;2024-01-06T00:22:26;43.91;37.80;54.26;;
72415;Laerm;60995;52.154;4.498;2024-01-06T00:24:42;45.96;36.81;62.93;;
72415;Laerm;60995;52.154;4.498;2024-01-06T00:26:58;44.88;37.57;53.72;;
72415;Laerm;60995;52.154;4.498;2024-01-06T00:29:14;42.11;36.21;54.38;;
72415;Laerm;60995;52.154;4.498;2024-01-06T00:31:30;43.18;36.71;52.84;;
72415;Laerm;60995;52.154;4.498;2024-01-06T00:33:46;47.53;37.76;62.08;;
72415;Laerm;60995;52.154;4.498;2024-01-06T00:36:02;45.16;38.63;57.10;;
72415;Laerm;60995;52.154;4.498;2024-01-06T00:38:21;42.51;37.59;49.73;;
72415;Laerm;60995;52.154;4.498;2024-01-06T00:40:39;44.20;36.86;54.62;;
72415;Laerm;60995;52.154;4.498;2024-01-06T00:42:55;43.70;37.88;51.47;;
72415;Laerm;60995;52.154;4.498;2024-01-06T00:45:11;45.11;37.55;54.75;;
72415;Laerm;60995;52.154;4.498;2024-01-06T00:47:27;43.26;36.67;53.65;;
72415;Laerm;60995;52.154;4.498;2024-01-06T00:49:43;42.46;37.13;56.05;;
72415;Laerm;60995;52.154;4.498;2024-01-06T00:51:59;43.73;37.72;57.99;;
72415;Laerm;60995;52.154;4.498;2024-01-06T00:54:15;43.93;37.15;53.32;;
72415;Laerm;60995;52.154;4.498;2024-01-06T00:56:31;45.04;36.25;57.56;;
72415;Laerm;60995;52.154;4.498;2024-01-06T00:58:47;42.72;36.48;49.74;;
72415;Laerm;60995;52.154;4.498;2024-01-06T01:01:03;42.14;37.11;50.03;;
72415;Laerm;60995;52.154;4.498;2024-01-06T01:03:19;43.17;37.78;51.14;;
72415;Laerm;60995;52.154;4.498;2024-01-06T01:05:34;43.38;37.20;53.65;;
72415;Laerm;60995;52.154;4.498;2024-01-06T01:07:51;43.92;37.15;54.16;;
72415;Laerm;60995;52.154;4.498;2024-01-06T01:10:07;43.14;37.37;51.88;;
72415;Laerm;60995;52.154;4.498;2024-01-06T01:12:24;43.96;36.85;57.36;;
72415;Laerm;60995;52.154;4.498;2024-01-06T01:14:41;45.06;37.03;56.73;;
72415;Laerm;60995;52.154;4.498;2024-01-06T01:17:00;43.41;36.78;55.12;;
72415;Laerm;60995;52.154;4.498;2024-01-06T01:19:16;44.17;37.06;56.82;;
72415;Laerm;60995;52.154;4.498;2024-01-06T01:21:32;44.60;37.23;53.30;;
72415;Laerm;60995;52.154;4.498;2024-01-06T01:23:48;44.16;36.59;53.91;;
72415;Laerm;60995;52.154;4.498;2024-01-06T01:26:04;43.32;37.02;55.44;;
72415;Laerm;60995;52.154;4.498;2024-01-06T01:28:20;43.63;36.91;55.89;;
72415;Laerm;60995;52.154;4.498;2024-01-06T01:30:36;45.56;37.59;55.06;;
72415;Laerm;60995;52.154;4.498;2024-01-06T01:32:52;44.48;36.60;55.28;;
72415;Laerm;60995;52.154;4.498;2024-01-06T01:35:08;44.15;37.75;56.83;;
72415;Laerm;60995;52.154;4.498;2024-01-06T01:37:24;44.70;37.40;56.60;;
72415;Laerm;60995;52.154;4.498;2024-01-06T01:39:40;42.36;36.32;49.59;;
72415;Laerm;60995;52.154;4.498;2024-01-06T01:41:56;43.88;37.07;52.61;;
72415;Laerm;60995;52.154;4.498;2024-01-06T01:44:12;42.99;37.71;56.87;;
72415;Laerm;60995;52.154;4.498;2024-01-06T01:46:29;42.13;36.98;53.97;;
72415;Laerm;60995;52.154;4.498;2024-01-06T01:48:45;45.88;36.76;59.86;;
72415;Laerm;60995;52.154;4.498;2024-01-06T01:51:02;44.79;37.55;61.41;;
72415;Laerm;60995;52.154;4.498;2024-01-06T01:53:19;44.42;37.58;54.27;;
72415;Laerm;60995;52.154;4.498;2024-01-06T01:55:35;43.75;37.28;53.99;;
72415;Laerm;60995;52.154;4.498;2024-01-06T01:57:52;42.07;36.78;54.28;;
72415;Laerm;60995;52.154;4.498;2024-01-06T02:00:09;43.55;37.38;53.08;;
72415;Laerm;60995;52.154;4.498;2024-01-06T02:02:25;45.39;37.04;72.24;;
72415;Laerm;60995;52.154;4.498;2024-01-06T02:04:45;43.55;36.76;49.31;;
72415;Laerm;60995;52.154;4.498;2024-01-06T02:07:01;44.32;37.28;55.38;;
72415;Laerm;60995;52.154;4.498;2024-01-06T02:09:17;44.21;36.50;56.46;;
72415;Laerm;60995;52.154;4.498;2024-01-06T02:11:33;41.83;36.97;48.06;;
72415;Laerm;60995;52.154;4.498;2024-01-06T02:13:49;42.94;37.15;48.64;;
72415;Laerm;60995;52.154;4.498;2024-01-06T02:16:05;42.47;36.69;48.87;;
72415;Laerm;60995;52.154;4.498;2024-01-06T02:18:22;44.26;37.22;56.33;;
72415;Laerm;60995;52.154;4.498;2024-01-06T02:20:40;42.95;37.44;51.10;;
72415;Laerm;60995;52.154;4.498;2024-01-06T02:22:58;45.12;37.47;54.06;;
72415;Laerm;60995;52.154;4.498;2024-01-06T02:25:17;42.65;37.25;53.06;;
72415;Laerm;60995;52.154;4.498;2024-01-06T02:27:33;50.10;37.05;80.58;;
72415;Laerm;60995;52.154;4.498;2024-01-06T02:29:49;42.60;36.57;49.47;;
72415;Laerm;60995;52.154;4.498;2024-01-06T02:32:05;41.90;36.85;53.22;;
72415;Laerm;60995;52.154;4.498;2024-01-06T02:34:21;43.64;36.55;51.66;;
72415;Laerm;60995;52.154;4.498;2024-01-06T02:36:37;43.80;37.48;53.38;;
72415;Laerm;60995;52.154;4.498;2024-01-06T02:38:53;42.64;36.64;51.74;;
72415;Laerm;60995;52.154;4.498;2024-01-06T02:41:09;41.83;37.17;53.11;;
72415;Laerm;60995;52.154;4.498;2024-01-06T02:43:25;43.62;37.47;54.31;;
72415;Laerm;60995;52.154;4.498;2024-01-06T02:45:41;41.85;36.90;49.21;;
72415;Laerm;60995;52.154;4.498;2024-01-06T02:47:57;43.11;37.13;56.07;;
72415;Laerm;60995;52.154;4.498;2024-01-06T02:50:13;42.67;36.99;55.65;;
72415;Laerm;60995;52.154;4.498;2024-01-06T02:52:29;42.38;36.22;49.28;;
72415;Laerm;60995;52.154;4.498;2024-01-06T02:54:45;44.01;37.89;53.34;;
72415;Laerm;60995;52.154;4.498;2024-01-06T02:57:01;42.69;36.95;57.03;;
72415;Laerm;60995;52.154;4.498;2024-01-06T02:59:17;41.93;37.38;47.61;;
72415;Laerm;60995;52.154;4.498;2024-01-06T03:01:33;42.13;36.05;51.14;;
72415;Laerm;60995;52.154;4.498;2024-01-06T03:03:50;43.49;37.09;52.78;;
72415;Laerm;60995;52.154;4.498;2024-01-06T03:06:06;42.34;36.94;49.73;;
72415;Laerm;60995;52.154;4.498;2024-01-06T03:08:22;41.82;36.22;54.80;;
72415;Laerm;60995;52.154;4.498;2024-01-06T03:10:39;42.09;36.85;56.59;;
72415;Laerm;60995;52.154;4.498;2024-01-06T03:12:55;44.34;37.27;56.44;;
72415;Laerm;60995;52.154;4.498;2024-01-06T03:15:11;43.60;36.63;53.65;;
72415;Laerm;60995;52.154;4.498;2024-01-06T03:17:27;42.92;37.32;52.60;;
72415;Laerm;60995;52.154;4.498;2024-01-06T03:19:44;41.88;36.99;49.36;;
72415;Laerm;60995;52.154;4.498;2024-01-06T03:22:00;44.82;36.94;57.81;;
72415;Laerm;60995;52.154;4.498;2024-01-06T03:24:16;45.84;37.91;55.63;;
72415;Laerm;60995;52.154;4.498;2024-01-06T03:26:32;42.51;36.88;53.06;;
72415;Laerm;60995;52.154;4.498;2024-01-06T03:28:51;42.78;37.52;52.44;;
72415;Laerm;60995;52.154;4.498;2024-01-06T03:31:07;41.98;36.88;48.93;;
72415;Laerm;60995;52.154;4.498;2024-01-06T03:33:26;44.33;37.50;56.11;;
72415;Laerm;60995;52.154;4.498;2024-01-06T03:35:42;43.47;37.34;52.09;;
72415;Laerm;60995;52.154;4.498;2024-01-06T03:37:58;42.44;36.87;61.12;;
72415;Laerm;60995;52.154;4.498;2024-01-06T03:40:14;42.07;37.08;51.15;;
72415;Laerm;60995;52.154;4.498;2024-01-06T03:42:30;45.22;36.99;68.33;;
72415;Laerm;60995;52.154;4.498;2024-01-06T03:44:46;43.35;35.16;56.31;;
72415;Laerm;60995;52.154;4.498;2024-01-06T03:47:02;41.59;34.86;60.53;;
72415;Laerm;60995;52.154;4.498;2024-01-06T03:49:18;40.47;34.47;55.89;;
72415;Laerm;60995;52.154;4.498;2024-01-06T03:51:36;41.17;34.45;53.32;;
72415;Laerm;60995;52.154;4.498;2024-01-06T03:53:52;42.59;35.25;52.86;;
72415;Laerm;60995;52.154;4.498;2024-01-06T03:56:08;40.11;34.40;48.94;;
72415;Laerm;60995;52.154;4.498;2024-01-06T03:58:24;43.03;34.69;58.99;;
72415;Laerm;60995;52.154;4.498;2024-01-06T04:00:40;41.93;34.80;54.70;;
72415;Laerm;60995;52.154;4.498;2024-01-06T04:02:56;42.38;35.67;52.65;;
72415;Laerm;60995;52.154;4.498;2024-01-06T04:05:12;47.90;35.10;65.28;;
72415;Laerm;60995;52.154;4.498;2024-01-06T04:07:28;40.56;34.35;51.48;;
72415;Laerm;60995;52.154;4.498;2024-01-06T04:09:44;40.73;34.33;60.13;;
72415;Laerm;60995;52.154;4.498;2024-01-06T04:12:00;43.73;34.21;53.98;;
72415;Laerm;60995;52.154;4.498;2024-01-06T04:14:16;42.64;35.15;51.23;;
72415;Laerm;60995;52.154;4.498;2024-01-06T04:16:32;41.08;34.81;53.82;;
72415;Laerm;60995;52.154;4.498;2024-01-06T04:18:48;40.98;34.86;47.28;;
72415;Laerm;60995;52.154;4.498;2024-01-06T04:21:04;44.40;35.24;54.74;;
72415;Laerm;60995;52.154;4.498;2024-01-06T04:23:20;44.02;35.37;56.60;;
72415;Laerm;60995;52.154;4.498;2024-01-06T04:25:36;40.96;35.12;56.04;;
72415;Laerm;60995;52.154;4.498;2024-01-06T04:27:52;44.42;34.49;57.80;;
72415;Laerm;60995;52.154;4.498;2024-01-06T04:30:09;40.13;34.83;52.79;;
72415;Laerm;60995;52.154;4.498;2024-01-06T04:32:25;41.40;35.27;67.29;;
72415;Laerm;60995;52.154;4.498;2024-01-06T04:34:41;44.97;34.17;64.72;;
72415;Laerm;60995;52.154;4.498;2024-01-06T04:36:57;40.18;34.75;50.82;;
72415;Laerm;60995;52.154;4.498;2024-01-06T04:39:13;41.00;35.25;49.51;;
72415;Laerm;60995;52.154;4.498;2024-01-06T04:41:29;43.09;35.67;56.11;;
72415;Laerm;60995;52.154;4.498;2024-01-06T04:43:45;41.67;34.73;48.80;;
72415;Laerm;60995;52.154;4.498;2024-01-06T04:46:01;41.81;35.40;52.73;;
72415;Laerm;60995;52.154;4.498;2024-01-06T04:48:19;40.98;35.48;56.10;;
72415;Laerm;60995;52.154;4.498;2024-01-06T04:50:35;41.47;35.19;55.63;;
72415;Laerm;60995;52.154;4.498;2024-01-06T04:52:51;42.69;34.96;58.66;;
72415;Laerm;60995;52.154;4.498;2024-01-06T04:55:07;45.22;36.83;58.38;;
72415;Laerm;60995;52.154;4.498;2024-01-06T04:57:24;43.04;36.05;57.43;;
72415;Laerm;60995;52.154;4.498;2024-01-06T04:59:40;41.91;36.25;50.15;;
72415;Laerm;60995;52.154;4.498;2024-01-06T05:01:57;42.08;36.11;50.85;;
72415;Laerm;60995;52.154;4.498;2024-01-06T05:04:13;42.69;36.12;51.33;;
72415;Laerm;60995;52.154;4.498;2024-01-06T05:06:29;41.70;35.52;52.19;;
72415;Laerm;60995;52.154;4.498;2024-01-06T05:08:45;43.51;35.64;54.58;;
72415;Laerm;60995;52.154;4.498;2024-01-06T05:11:01;44.84;36.61;54.64;;
72415;Laerm;60995;52.154;4.498;2024-01-06T05:13:17;42.53;34.66;50.16;;
72415;Laerm;60995;52.154;4.498;2024-01-06T05:15:33;44.00;35.64;53.52;;
72415;Laerm;60995;52.154;4.498;2024-01-06T05:17:49;40.30;34.46;50.50;;
72415;Laerm;60995;52.154;4.498;2024-01-06T05:20:06;41.00;35.10;51.70;;
72415;Laerm;60995;52.154;4.498;2024-01-06T05:22:22;40.05;35.11;52.21;;
72415;Laerm;60995;52.154;4.498;2024-01-06T05:24:38;43.86;35.12;53.34;;
72415;Laerm;60995;52.154;4.498;2024-01-06T05:26:54;42.91;34.50;53.77;;
72415;Laerm;60995;52.154;4.498;2024-01-06T05:29:10;42.20;37.88;48.43;;
72415;Laerm;60995;52.154;4.498;2024-01-06T05:31:26;43.62;37.35;52.08;;
72415;Laerm;60995;52.154;4.498;2024-01-06T05:33:42;44.09;38.34;55.25;;
72415;Laerm;60995;52.154;4.498;2024-01-06T05:35:58;44.71;38.28;55.41;;
72415;Laerm;60995;52.154;4.498;2024-01-06T05:38:14;53.30;38.15;69.27;;
72415;Laerm;60995;52.154;4.498;2024-01-06T05:40:30;44.55;38.44;53.78;;
72415;Laerm;60995;52.154;4.498;2024-01-06T05:42:46;46.77;38.67;63.14;;
72415;Laerm;60995;52.154;4.498;2024-01-06T05:45:03;43.95;38.41;55.24;;
72415;Laerm;60995;52.154;4.498;2024-01-06T05:47:19;46.05;37.74;62.21;;
72415;Laerm;60995;52.154;4.498;2024-01-06T05:49:35;48.45;38.52;63.43;;
72415;Laerm;60995;52.154;4.498;2024-01-06T05:51:50;54.39;39.05;67.76;;
72415;Laerm;60995;52.154;4.498;2024-01-06T05:54:07;63.67;39.64;82.78;;
72415;Laerm;60995;52.154;4.498;2024-01-06T05:56:24;62.59;38.04;78.23;;
72415;Laerm;60995;52.154;4.498;2024-01-06T05:58:41;42.90;37.85;58.47;;
72415;Laerm;60995;52.154;4.498;2024-01-06T06:00:56;58.13;38.06;75.59;;
72415;Laerm;60995;52.154;4.498;2024-01-06T06:03:14;45.13;37.83;54.72;;
72415;Laerm;60995;52.154;4.498;2024-01-06T06:05:30;47.60;37.73;62.32;;
72415;Laerm;60995;52.154;4.498;2024-01-06T06:07:46;45.40;38.41;53.73;;
72415;Laerm;60995;52.154;4.498;2024-01-06T06:10:02;44.26;37.37;56.22;;
72415;Laerm;60995;52.154;4.498;2024-01-06T06:12:19;42.93;38.04;55.20;;
72415;Laerm;60995;52.154;4.498;2024-01-06T06:14:35;45.71;38.75;55.17;;
72415;Laerm;60995;52.154;4.498;2024-01-06T06:16:52;43.23;36.84;57.08;;
72415;Laerm;60995;52.154;4.498;2024-01-06T06:19:08;43.37;37.69;60.05;;
72415;Laerm;60995;52.154;4.498;2024-01-06T06:21:24;47.21;38.54;60.17;;
72415;Laerm;60995;52.154;4.498;2024-01-06T06:23:40;44.58;39.00;50.92;;
72415;Laerm;60995;52.154;4.498;2024-01-06T06:25:56;44.77;38.22;52.93;;
72415;Laerm;60995;52.154;4.498;2024-01-06T06:28:13;46.22;39.36;57.66;;
72415;Laerm;60995;52.154;4.498;2024-01-06T06:30:29;44.59;38.75;61.56;;
72415;Laerm;60995;52.154;4.498;2024-01-06T06:32:45;43.59;37.20;57.22;;
72415;Laerm;60995;52.154;4.498;2024-01-06T06:35:02;44.70;38.85;57.46;;
72415;Laerm;60995;52.154;4.498;2024-01-06T06:37:18;44.36;38.67;52.14;;
72415;Laerm;60995;52.154;4.498;2024-01-06T06:39:35;45.86;37.83;58.26;;
72415;Laerm;60995;52.154;4.498;2024-01-06T06:41:52;48.17;38.47;63.16;;
72415;Laerm;60995;52.154;4.498;2024-01-06T06:44:08;49.03;39.61;63.62;;
72415;Laerm;60995;52.154;4.498;2024-01-06T06:46:24;44.33;38.49;52.78;;
72415;Laerm;60995;52.154;4.498;2024-01-06T06:48:40;46.09;38.74;56.04;;
72415;Laerm;60995;52.154;4.498;2024-01-06T06:50:56;46.32;39.31;55.90;;
72415;Laerm;60995;52.154;4.498;2024-01-06T06:53:12;44.97;38.64;53.90;;
72415;Laerm;60995;52.154;4.498;2024-01-06T06:55:29;44.49;38.52;55.80;;
72415;Laerm;60995;52.154;4.498;2024-01-06T06:57:45;47.01;39.83;58.64;;
72415;Laerm;60995;52.154;4.498;2024-01-06T07:00:01;44.73;38.95;55.39;;
72415;Laerm;60995;52.154;4.498;2024-01-06T07:02:18;44.73;39.17;58.47;;
72415;Laerm;60995;52.154;4.498;2024-01-06T07:04:34;44.86;38.14;53.77;;
72415;Laerm;60995;52.154;4.498;2024-01-06T07:06:50;46.40;39.42;55.97;;
72415;Laerm;60995;52.154;4.498;2024-01-06T07:09:06;49.29;40.82;62.59;;
72415;Laerm;60995;52.154;4.498;2024-01-06T07:11:23;51.55;40.94;65.24;;
72415;Laerm;60995;52.154;4.498;2024-01-06T07:13:39;50.41;41.32;64.22;;
72415;Laerm;60995;52.154;4.498;2024-01-06T07:15:55;48.06;42.11;66.13;;
72415;Laerm;60995;52.154;4.498;2024-01-06T07:18:11;45.55;40.33;54.34;;
72415;Laerm;60995;52.154;4.498;2024-01-06T07:20:27;46.92;39.53;58.81;;
72415;Laerm;60995;52.154;4.498;2024-01-06T07:22:43;44.09;39.44;54.26;;
72415;Laerm;60995;52.154;4.498;2024-01-06T07:24:59;48.12;38.17;57.21;;
72415;Laerm;60995;52.154;4.498;2024-01-06T07:27:15;46.51;38.80;56.16;;
72415;Laerm;60995;52.154;4.498;2024-01-06T07:29:33;47.51;39.91;59.37;;
72415;Laerm;60995;52.154;4.498;2024-01-06T07:31:52;48.99;38.86;61.92;;
72415;Laerm;60995;52.154;4.498;2024-01-06T07:34:08;46.32;38.87;54.87;;
72415;Laerm;60995;52.154;4.498;2024-01-06T07:36:23;53.10;40.32;67.99;;
72415;Laerm;60995;52.154;4.498;2024-01-06T07:38:39;47.33;38.45;60.94;;
72415;Laerm;60995;52.154;4.498;2024-01-06T07:40:55;51.14;39.74;63.89;;
72415;Laerm;60995;52.154;4.498;2024-01-06T07:43:11;45.57;37.82;58.89;;
72415;Laerm;60995;52.154;4.498;2024-01-06T07:45:27;46.45;37.60;56.71;;
72415;Laerm;60995;52.154;4.498;2024-01-06T07:47:43;50.81;41.83;64.63;;
72415;Laerm;60995;52.154;4.498;2024-01-06T07:49:59;53.57;41.88;65.49;;
72415;Laerm;60995;52.154;4.498;2024-01-06T07:52:15;50.72;39.87;65.88;;
72415;Laerm;60995;52.154;4.498;2024-01-06T07:54:34;46.42;37.68;61.14;;
72415;Laerm;60995;52.154;4.498;2024-01-06T07:56:50;46.55;37.90;54.57;;
72415;Laerm;60995;52.154;4.498;2024-01-06T07:59:06;47.69;38.30;56.67;;
72415;Laerm;60995;52.154;4.498;2024-01-06T08:01:22;46.69;38.44;54.46;;
72415;Laerm;60995;52.154;4.498;2024-01-06T08:03:38;46.33;38.79;69.24;;
72415;Laerm;60995;52.154;4.498;2024-01-06T08:05:54;47.91;37.70;65.10;;
72415;Laerm;60995;52.154;4.498;2024-01-06T08:08:10;48.80;39.38;65.97;;
72415;Laerm;60995;52.154;4.498;2024-01-06T08:10:28;50.68;42.15;68.45;;
72415;Laerm;60995;52.154;4.498;2024-01-06T08:12:47;62.52;42.19;81.13;;
72415;Laerm;60995;52.154;4.498;2024-01-06T08:15:04;48.31;39.69;61.75;;
72415;Laerm;60995;52.154;4.498;2024-01-06T08:17:20;47.62;39.09;61.94;;
72415;Laerm;60995;52.154;4.498;2024-01-06T08:19:36;50.16;39.81;65.14;;
72415;Laerm;60995;52.154;4.498;2024-01-06T08:21:52;48.42;38.34;63.91;;
72415;Laerm;60995;52.154;4.498;2024-01-06T08:24:08;47.26;38.78;59.56;;
72415;Laerm;60995;52.154;4.498;2024-01-06T08:26:24;52.61;38.92;66.85;;
72415;Laerm;60995;52.154;4.498;2024-01-06T08:28:40;56.43;39.23;72.35;;
72415;Laerm;60995;52.154;4.498;2024-01-06T08:30:56;48.01;40.40;64.12;;
72415;Laerm;60995;52.154;4.498;2024-01-06T08:33:12;46.97;39.22;58.20;;
72415;Laerm;60995;52.154;4.498;2024-01-06T08:35:28;48.78;39.50;61.19;;
72415;Laerm;60995;52.154;4.498;2024-01-06T08:37:45;50.29;42.54;64.77;;
72415;Laerm;60995;52.154;4.498;2024-01-06T08:40:01;46.46;39.37;58.48;;
72415;Laerm;60995;52.154;4.498;2024-01-06T08:42:18;49.38;39.77;62.51;;
72415;Laerm;60995;52.154;4.498;2024-01-06T08:44:36;50.19;40.87;63.57;;
72415;Laerm;60995;52.154;4.498;2024-01-06T08:46:52;61.11;41.34;77.71;;
72415;Laerm;60995;52.154;4.498;2024-01-06T08:49:08;56.94;39.85;73.09;;
72415;Laerm;60995;52.154;4.498;2024-01-06T08:51:24;47.76;39.12;65.85;;
72415;Laerm;60995;52.154;4.498;2024-01-06T08:53:42;50.52;39.82;79.86;;
72415;Laerm;60995;52.154;4.498;2024-01-06T08:55:58;49.65;44.10;61.64;;
72415;Laerm;60995;52.154;4.498;2024-01-06T08:58:14;47.35;39.35;55.23;;
72415;Laerm;60995;52.154;4.498;2024-01-06T09:00:30;51.50;40.43;65.97;;
72415;Laerm;60995;52.154;4.498;2024-01-06T09:02:46;48.01;40.43;56.97;;
72415;Laerm;60995;52.154;4.498;2024-01-06T09:05:02;48.36;41.34;58.52;;
72415;Laerm;60995;52.154;4.498;2024-01-06T09:07:18;50.71;42.63;65.81;;
72415;Laerm;60995;52.154;4.498;2024-01-06T09:09:34;56.35;42.26;67.87;;
72415;Laerm;60995;52.154;4.498;2024-01-06T09:11:50;58.29;38.92;78.06;;
72415;Laerm;60995;52.154;4.498;2024-01-06T09:14:06;51.71;42.61;66.04;;
72415;Laerm;60995;52.154;4.498;2024-01-06T09:16:22;53.40;41.59;73.41;;
72415;Laerm;60995;52.154;4.498;2024-01-06T09:18:38;52.38;41.98;66.01;;
72415;Laerm;60995;52.154;4.498;2024-01-06T09:20:55;49.62;38.99;65.80;;
72415;Laerm;60995;52.154;4.498;2024-01-06T09:23:11;48.80;40.10;65.10;;
72415;Laerm;60995;52.154;4.498;2024-01-06T09:25:27;56.18;43.40;71.62;;
72415;Laerm;60995;52.154;4.498;2024-01-06T09:27:44;52.72;45.99;67.64;;
72415;Laerm;60995;52.154;4.498;2024-01-06T09:30:00;51.68;44.34;64.24;;
72415;Laerm;60995;52.154;4.498;2024-01-06T09:32:16;50.63;43.91;57.39;;
72415;Laerm;60995;52.154;4.498;2024-01-06T09:34:32;49.69;43.35;56.05;;
72415;Laerm;60995;52.154;4.498;2024-01-06T09:36:48;52.40;43.98;65.27;;
72415;Laerm;60995;52.154;4.498;2024-01-06T09:39:04;56.23;46.26;70.42;;
72415;Laerm;60995;52.154;4.498;2024-01-06T09:41:20;51.92;43.75;72.16;;
72415;Laerm;60995;52.154;4.498;2024-01-06T09:43:37;55.58;43.10;73.62;;
72415;Laerm;60995;52.154;4.498;2024-01-06T09:46:10;49.86;43.40;59.17;;
72415;Laerm;60995;52.154;4.498;2024-01-06T09:48:32;52.34;45.43;61.65;;
72415;Laerm;60995;52.154;4.498;2024-01-06T09:50:53;51.34;43.66;60.66;;
72415;Laerm;60995;52.154;4.498;2024-01-06T09:53:12;55.09;43.69;69.31;;
72415;Laerm;60995;52.154;4.498;2024-01-06T09:55:28;53.07;44.82;67.17;;
72415;Laerm;60995;52.154;4.498;2024-01-06T09:57:45;56.50;45.09;70.26;;
72415;Laerm;60995;52.154;4.498;2024-01-06T10:00:01;56.82;45.46;73.97;;
72415;Laerm;60995;52.154;4.498;2024-01-06T10:02:17;49.26;38.26;62.32;;
72415;Laerm;60995;52.154;4.498;2024-01-06T10:04:33;47.65;38.41;54.74;;
72415;Laerm;60995;52.154;4.498;2024-01-06T10:06:49;56.17;42.42;72.81;;
72415;Laerm;60995;52.154;4.498;2024-01-06T10:09:06;57.40;40.47;74.78;;
72415;Laerm;60995;52.154;4.498;2024-01-06T10:11:22;47.95;39.43;58.29;;
72415;Laerm;60995;52.154;4.498;2024-01-06T10:13:38;58.02;43.87;73.78;;
72415;Laerm;60995;52.154;4.498;2024-01-06T10:15:55;46.87;40.67;59.52;;
72415;Laerm;60995;52.154;4.498;2024-01-06T10:18:11;48.65;40.90;60.43;;
72415;Laerm;60995;52.154;4.498;2024-01-06T10:20:29;53.45;41.86;68.85;;
72415;Laerm;60995;52.154;4.498;2024-01-06T10:22:45;56.90;41.80;74.66;;
72415;Laerm;60995;52.154;4.498;2024-01-06T10:25:01;48.83;40.61;61.45;;
72415;Laerm;60995;52.154;4.498;2024-01-06T10:27:17;48.59;39.75;55.16;;
72415;Laerm;60995;52.154;4.498;2024-01-06T10:29:36;52.04;40.22;68.65;;
72415;Laerm;60995;52.154;4.498;2024-01-06T10:31:52;49.38;39.89;60.75;;
72415;Laerm;60995;52.154;4.498;2024-01-06T10:34:11;51.86;41.46;65.43;;
72415;Laerm;60995;52.154;4.498;2024-01-06T10:36:29;49.69;41.33;59.85;;
72415;Laerm;60995;52.154;4.498;2024-01-06T10:38:49;50.49;41.57;63.76;;
72415;Laerm;60995;52.154;4.498;2024-01-06T10:41:05;49.10;42.33;57.35;;
72415;Laerm;60995;52.154;4.498;2024-01-06T10:43:27;48.32;40.23;55.42;;
72415;Laerm;60995;52.154;4.498;2024-01-06T10:45:50;53.98;40.77;70.99;;
72415;Laerm;60995;52.154;4.498;2024-01-06T10:48:07;49.53;43.47;60.30;;
72415;Laerm;60995;52.154;4.498;2024-01-06T10:50:27;52.15;39.72;65.23;;
72415;Laerm;60995;52.154;4.498;2024-01-06T10:52:46;49.02;41.07;59.67;;
72415;Laerm;60995;52.154;4.498;2024-01-06T10:55:02;48.88;40.87;56.22;;
72415;Laerm;60995;52.154;4.498;2024-01-06T10:57:20;50.20;41.00;57.56;;
72415;Laerm;60995;52.154;4.498;2024-01-06T10:59:37;49.16;39.76;71.96;;
72415;Laerm;60995;52.154;4.498;2024-01-06T11:01:55;49.35;41.32;58.24;;
72415;Laerm;60995;52.154;4.498;2024-01-06T11:04:15;49.50;41.10;58.76;;
72415;Laerm;60995;52.154;4.498;2024-01-06T11:06:32;48.85;40.68;54.81;;
72415;Laerm;60995;52.154;4.498;2024-01-06T11:08:54;50.49;40.31;61.58;;
72415;Laerm;60995;52.154;4.498;2024-01-06T11:11:13;51.35;41.29;62.31;;
72415;Laerm;60995;52.154;4.498;2024-01-06T11:13:29;58.40;41.87;73.86;;
72415;Laerm;60995;52.154;4.498;2024-01-06T11:15:48;53.85;43.11;68.19;;
72415;Laerm;60995;52.154;4.498;2024-01-06T11:18:07;48.84;42.59;57.56;;
72415;Laerm;60995;52.154;4.498;2024-01-06T11:20:26;55.25;40.82;73.08;;
72415;Laerm;60995;52.154;4.498;2024-01-06T11:22:46;62.53;40.33;79.05;;
72415;Laerm;60995;52.154;4.498;2024-01-06T11:25:14;53.19;43.30;68.41;;
72415;Laerm;60995;52.154;4.498;2024-01-06T11:27:31;54.83;42.91;70.45;;
72415;Laerm;60995;52.154;4.498;2024-01-06T11:29:47;50.80;43.14;58.42;;
72415;Laerm;60995;52.154;4.498;2024-01-06T11:32:24;49.46;40.18;64.07;;
72415;Laerm;60995;52.154;4.498;2024-01-06T11:34:41;55.21;42.67;68.55;;
72415;Laerm;60995;52.154;4.498;2024-01-06T11:36:57;47.72;40.15;56.89;;
72415;Laerm;60995;52.154;4.498;2024-01-06T11:41:52;48.96;40.65;55.70;;
72415;Laerm;60995;52.154;4.498;2024-01-06T11:44:08;48.47;41.16;56.98;;
72415;Laerm;60995;52.154;4.498;2024-01-06T11:46:25;47.29;39.79;56.71;;
72415;Laerm;60995;52.154;4.498;2024-01-06T11:48:41;49.37;43.23;55.99;;
72415;Laerm;60995;52.154;4.498;2024-01-06T11:51:06;56.71;40.65;73.28;;
72415;Laerm;60995;52.154;4.498;2024-01-06T11:53:22;49.53;42.53;56.60;;
72415;Laerm;60995;52.154;4.498;2024-01-06T11:55:39;47.62;40.98;58.46;;
72415;Laerm;60995;52.154;4.498;2024-01-06T11:57:58;50.64;41.50;64.71;;
72415;Laerm;60995;52.154;4.498;2024-01-06T12:00:18;48.39;42.23;57.32;;
72415;Laerm;60995;52.154;4.498;2024-01-06T12:02:35;47.46;40.20;54.74;;
72415;Laerm;60995;52.154;4.498;2024-01-06T12:04:55;49.12;39.70;61.08;;
72415;Laerm;60995;52.154;4.498;2024-01-06T12:07:11;52.82;39.66;68.10;;
72415;Laerm;60995;52.154;4.498;2024-01-06T12:09:32;48.19;39.48;58.04;;
72415;Laerm;60995;52.154;4.498;2024-01-06T12:12:01;48.89;39.34;59.17;;
72415;Laerm;60995;52.154;4.498;2024-01-06T12:14:17;48.84;41.15;63.38;;
72415;Laerm;60995;52.154;4.498;2024-01-06T12:16:33;49.09;39.95;56.83;;
72415;Laerm;60995;52.154;4.498;2024-01-06T12:18:49;49.03;40.97;55.51;;
72415;Laerm;60995;52.154;4.498;2024-01-06T12:21:06;48.94;40.14;62.80;;
72415;Laerm;60995;52.154;4.498;2024-01-06T12:23:27;47.32;40.07;54.64;;
72415;Laerm;60995;52.154;4.498;2024-01-06T12:25:43;50.79;39.63;63.14;;
72415;Laerm;60995;52.154;4.498;2024-01-06T12:28:02;49.39;39.16;59.16;;
72415;Laerm;60995;52.154;4.498;2024-01-06T12:30:20;48.28;39.86;55.81;;
72415;Laerm;60995;52.154;4.498;2024-01-06T12:32:38;50.76;39.95;61.20;;
72415;Laerm;60995;52.154;4.498;2024-01-06T12:34:54;49.67;41.47;62.34;;
72415;Laerm;60995;52.154;4.498;2024-01-06T12:37:13;53.40;42.64;66.72;;
72415;Laerm;60995;52.154;4.498;2024-01-06T12:39:29;52.38;39.92;65.18;;
72415;Laerm;60995;52.154;4.498;2024-01-06T12:41:50;49.47;41.31;57.68;;
72415;Laerm;60995;52.154;4.498;2024-01-06T12:44:09;48.61;40.04;60.67;;
72415;Laerm;60995;52.154;4.498;2024-01-06T12:46:29;47.43;39.94;53.83;;
72415;Laerm;60995;52.154;4.498;2024-01-06T12:48:45;48.47;40.72;60.26;;